createdAt,value
2023-03-16T00:01:08.416Z,79.96
2023-03-16T00:03:37.146Z,80.23
2023-03-16T00:06:06.267Z,79.80
2023-03-16T00:08:35.842Z,80.08
2023-03-16T00:11:04.942Z,79.92
2023-03-16T00:13:33.534Z,80.07
2023-03-16T00:16:07.908Z,80.24
2023-03-16T00:18:39.347Z,80.19
2023-03-16T00:21:08.494Z,80.54
2023-03-16T00:23:37.279Z,81.04
2023-03-16T00:26:10.180Z,80.67
2023-03-16T00:28:39.285Z,80.84
2023-03-16T00:31:12.516Z,80.61
2023-03-16T00:33:43.026Z,81.03
2023-03-16T00:36:12.802Z,80.92
2023-03-16T00:38:45.926Z,80.82
2023-03-16T00:41:15.916Z,81.29
2023-03-16T00:43:45.007Z,81.30
2023-03-16T00:46:17.945Z,81.46
2023-03-16T00:48:47.908Z,81.33
2023-03-16T00:51:18.931Z,81.47
2023-03-16T00:53:48.112Z,81.58
2023-03-16T00:56:17.364Z,81.84
2023-03-16T00:58:46.179Z,82.16
2023-03-16T01:01:20.236Z,82.26
2023-03-16T01:03:50.088Z,82.12
2023-03-16T01:06:20.847Z,81.99
2023-03-16T01:08:49.960Z,82.10
2023-03-16T01:11:22.985Z,82.89
2023-03-16T01:13:54.543Z,82.79
2023-03-16T01:16:25.934Z,83.39
2023-03-16T01:18:55.335Z,83.65
2023-03-16T01:21:24.906Z,83.28
2023-03-16T01:23:54.114Z,83.55
2023-03-16T01:26:25.390Z,83.88
2023-03-16T01:28:55.094Z,83.90
2023-03-16T01:31:24.564Z,83.48
2023-03-16T01:33:53.514Z,83.77
2023-03-16T01:36:25.572Z,83.49
2023-03-16T01:39:00.255Z,85.15
2023-03-16T01:41:32.040Z,85.56
2023-03-16T01:44:00.837Z,85.10
2023-03-16T01:46:32.300Z,85.38
2023-03-16T01:49:13.321Z,85.26
2023-03-16T01:51:52.988Z,85.10
2023-03-16T01:54:36.417Z,85.08
2023-03-16T01:57:22.758Z,85.51
2023-03-16T02:00:22.038Z,84.89
2023-03-16T02:03:11.875Z,84.76
2023-03-16T02:06:19.448Z,85.25
2023-03-16T02:08:55.713Z,84.92
2023-03-16T02:11:25.746Z,85.09
2023-03-16T02:14:11.378Z,85.48
2023-03-16T02:16:41.773Z,86.14
2023-03-16T02:19:24.783Z,85.55
2023-03-16T02:22:07.298Z,85.13
2023-03-16T02:24:38.008Z,85.19
2023-03-16T02:27:26.316Z,85.42
2023-03-16T02:30:14.621Z,85.36
2023-03-16T02:32:57.237Z,85.28
2023-03-16T02:35:26.455Z,85.43
2023-03-16T02:37:55.546Z,85.28
2023-03-16T02:40:34.000Z,84.73
2023-03-16T02:43:22.111Z,84.73
2023-03-16T02:46:05.493Z,84.92
2023-03-16T02:49:05.965Z,85.04
2023-03-16T02:51:34.907Z,85.07
2023-03-16T02:54:04.208Z,84.77
2023-03-16T02:56:34.637Z,84.38
2023-03-16T02:59:03.429Z,84.88
2023-03-16T03:01:35.026Z,84.86
2023-03-16T03:04:05.993Z,85.07
2023-03-16T03:06:34.952Z,84.80
2023-03-16T03:09:05.321Z,84.83
2023-03-16T03:11:34.167Z,85.19
2023-03-16T03:14:04.027Z,84.42
2023-03-16T03:16:35.987Z,84.16
2023-03-16T03:19:04.845Z,84.75
2023-03-16T03:21:36.444Z,84.42
2023-03-16T03:24:06.186Z,84.85
2023-03-16T03:26:38.295Z,84.29
2023-03-16T03:29:08.724Z,84.03
2023-03-16T03:31:37.687Z,83.99
2023-03-16T03:34:06.993Z,84.84
2023-03-16T03:36:37.211Z,84.74
2023-03-16T03:39:07.696Z,84.62
2023-03-16T03:41:36.962Z,84.46
2023-03-16T03:44:06.055Z,83.95
2023-03-16T03:46:35.703Z,84.09
2023-03-16T03:49:05.583Z,84.13
2023-03-16T03:51:36.232Z,84.36
2023-03-16T03:54:09.291Z,84.21
2023-03-16T03:56:54.922Z,84.13
2023-03-16T03:59:23.742Z,83.94
2023-03-16T04:02:39.138Z,83.55
2023-03-16T04:05:10.101Z,83.20
2023-03-16T04:07:39.331Z,83.85
2023-03-16T04:10:10.056Z,83.26
2023-03-16T04:12:41.284Z,83.15
2023-03-16T04:15:12.889Z,83.32
2023-03-16T04:18:00.459Z,83.25
2023-03-16T04:20:30.002Z,83.52
2023-03-16T04:22:59.450Z,82.97
2023-03-16T04:25:28.274Z,82.83
2023-03-16T04:27:57.308Z,83.15
2023-03-16T04:30:29.491Z,83.05
2023-03-16T04:33:06.764Z,83.47
2023-03-16T04:35:35.573Z,83.50
2023-03-16T04:38:04.522Z,83.92
2023-03-16T04:40:40.699Z,83.76
2023-03-16T04:43:14.277Z,84.12
2023-03-16T04:45:44.327Z,84.17
2023-03-16T04:48:14.904Z,84.03
2023-03-16T04:50:45.502Z,84.05
2023-03-16T04:53:14.636Z,84.39
2023-03-16T04:55:47.005Z,84.45
2023-03-16T04:58:16.328Z,85.04
2023-03-16T05:00:45.706Z,85.62
2023-03-16T05:03:21.950Z,85.25
2023-03-16T05:05:51.291Z,85.19
2023-03-16T05:08:20.365Z,85.77
2023-03-16T05:10:50.486Z,85.14
2023-03-16T05:13:19.675Z,84.72
2023-03-16T05:15:49.351Z,84.82
2023-03-16T05:18:28.416Z,84.35
2023-03-16T05:20:57.355Z,84.13
2023-03-16T05:23:29.058Z,84.66
2023-03-16T05:26:01.579Z,84.60
2023-03-16T05:28:32.173Z,85.34
2023-03-16T05:31:10.215Z,85.52
2023-03-16T05:33:45.099Z,85.10
2023-03-16T05:36:17.715Z,85.13
2023-03-16T05:38:48.421Z,85.06
2023-03-16T05:41:25.427Z,84.95
2023-03-16T05:44:40.670Z,84.85
2023-03-16T05:48:02.135Z,85.20
2023-03-16T05:50:31.942Z,84.78
2023-03-16T05:53:00.945Z,84.81
2023-03-16T05:55:30.399Z,84.48
2023-03-16T05:58:03.825Z,85.19
2023-03-16T06:00:35.847Z,84.95
2023-03-16T06:03:09.946Z,84.58
2023-03-16T06:05:39.373Z,84.65
2023-03-16T06:08:09.320Z,84.74
2023-03-16T06:10:38.338Z,84.20
2023-03-16T06:13:07.467Z,84.20
2023-03-16T06:15:36.248Z,84.19
2023-03-16T06:18:06.347Z,84.74
2023-03-16T06:20:35.757Z,84.97
2023-03-16T06:23:06.094Z,84.42
2023-03-16T06:25:35.531Z,84.57
2023-03-16T06:28:05.491Z,84.55
2023-03-16T06:30:35.084Z,84.72
2023-03-16T06:33:04.525Z,84.79
2023-03-16T06:35:34.813Z,85.15
2023-03-16T06:38:18.274Z,84.98
2023-03-16T06:41:09.066Z,85.32
2023-03-16T06:43:38.004Z,84.99
2023-03-16T06:46:07.189Z,85.29
2023-03-16T06:48:36.253Z,84.85
2023-03-16T06:51:07.768Z,85.66
2023-03-16T06:53:36.867Z,85.16
2023-03-16T06:56:06.127Z,85.31
2023-03-16T06:58:39.719Z,85.56
2023-03-16T07:01:08.649Z,85.00
2023-03-16T07:03:38.247Z,84.82
2023-03-16T07:06:15.642Z,84.86
2023-03-16T07:08:46.854Z,84.74
2023-03-16T07:11:22.109Z,84.62
2023-03-16T07:13:53.639Z,84.28
2023-03-16T07:16:23.941Z,84.23
2023-03-16T07:18:53.486Z,83.77
2023-03-16T07:21:22.852Z,83.80
2023-03-16T07:23:52.905Z,84.16
2023-03-16T07:26:26.579Z,83.97
2023-03-16T07:28:58.239Z,83.57
2023-03-16T07:31:29.452Z,83.23
2023-03-16T07:34:00.451Z,83.57
2023-03-16T07:36:36.147Z,83.49
2023-03-16T07:39:06.468Z,83.25
2023-03-16T07:41:36.120Z,82.87
2023-03-16T07:44:19.167Z,82.93
2023-03-16T07:46:53.544Z,82.63
2023-03-16T07:49:27.885Z,82.29
2023-03-16T07:51:57.486Z,82.29
2023-03-16T07:54:30.905Z,82.89
2023-03-16T07:56:59.937Z,82.40
2023-03-16T07:59:35.309Z,82.31
2023-03-16T08:02:05.495Z,82.25
2023-03-16T08:04:35.180Z,81.99
2023-03-16T08:07:04.724Z,82.00
2023-03-16T08:09:46.579Z,81.62
2023-03-16T08:12:18.400Z,81.70
2023-03-16T08:14:48.554Z,81.67
2023-03-16T08:17:27.996Z,81.89
2023-03-16T08:19:59.756Z,81.91
2023-03-16T08:22:29.276Z,81.88
2023-03-16T08:24:58.538Z,81.94
2023-03-16T08:27:29.796Z,82.13
2023-03-16T08:30:05.365Z,81.49
2023-03-16T08:32:34.953Z,81.33
2023-03-16T08:35:05.037Z,81.01
2023-03-16T08:37:33.959Z,80.62
2023-03-16T08:40:06.443Z,80.14
2023-03-16T08:42:35.410Z,80.17
2023-03-16T08:45:12.396Z,80.66
2023-03-16T08:47:43.172Z,80.59
2023-03-16T08:50:16.089Z,80.63
2023-03-16T08:52:49.668Z,80.09
2023-03-16T08:55:25.286Z,79.44
2023-03-16T08:57:57.896Z,79.16
2023-03-16T09:00:30.125Z,78.63
2023-03-16T09:03:03.406Z,78.48
2023-03-16T09:05:35.676Z,77.85
2023-03-16T09:08:06.888Z,78.16
2023-03-16T09:10:39.787Z,77.73
2023-03-16T09:13:10.399Z,77.92
2023-03-16T09:15:40.631Z,77.34
2023-03-16T09:18:11.769Z,77.30
2023-03-16T09:20:40.919Z,77.05
2023-03-16T09:23:09.890Z,76.68
2023-03-16T09:25:39.477Z,76.52
2023-03-16T09:28:09.990Z,76.55
2023-03-16T09:30:39.266Z,76.28
2023-03-16T09:35:57.874Z,76.47
2023-03-16T09:38:27.288Z,76.40
2023-03-16T09:41:07.121Z,76.49
2023-03-16T09:43:36.024Z,76.23
2023-03-16T09:46:10.005Z,76.50
2023-03-16T09:48:44.268Z,75.75
2023-03-16T09:51:38.287Z,75.70
2023-03-16T09:54:56.652Z,75.81
2023-03-16T09:57:47.380Z,75.52
2023-03-16T10:00:31.773Z,75.40
2023-03-16T10:03:17.763Z,75.56
2023-03-16T10:05:56.229Z,76.17
2023-03-16T10:08:33.161Z,76.75
2023-03-16T10:11:31.759Z,77.31
2023-03-16T10:14:17.876Z,77.67
2023-03-16T10:17:25.135Z,77.88
2023-03-16T10:20:02.423Z,78.13
2023-03-16T10:22:35.860Z,77.95
2023-03-16T10:25:22.809Z,77.35
2023-03-16T10:27:52.508Z,77.08
2023-03-16T10:30:34.447Z,76.87
2023-03-16T10:33:19.886Z,76.84
2023-03-16T10:36:05.816Z,76.64
2023-03-16T10:38:43.811Z,76.74
2023-03-16T10:41:33.561Z,76.66
2023-03-16T10:44:08.682Z,76.84
2023-03-16T10:46:48.739Z,76.56
2023-03-16T10:49:21.872Z,76.11
2023-03-16T10:51:51.469Z,76.09
2023-03-16T10:54:39.347Z,76.20
2023-03-16T10:57:41.745Z,76.39
2023-03-16T11:00:27.002Z,76.68
2023-03-16T11:02:59.277Z,75.94
2023-03-16T11:05:34.801Z,75.17
2023-03-16T11:08:13.709Z,75.07
2023-03-16T11:10:55.505Z,75.24
2023-03-16T11:13:34.047Z,74.81
2023-03-16T11:16:46.537Z,74.48
2023-03-16T11:19:42.914Z,75.07
2023-03-16T11:22:24.530Z,74.35
2023-03-16T11:25:09.592Z,74.45
2023-03-16T11:27:46.356Z,74.84
2023-03-16T11:30:24.936Z,74.45
2023-03-16T11:32:54.471Z,73.62
2023-03-16T11:36:07.294Z,73.56
2023-03-16T11:38:58.623Z,73.30
2023-03-16T11:41:48.550Z,72.81
2023-03-16T11:44:55.574Z,73.00
2023-03-16T11:47:46.599Z,72.81
2023-03-16T11:50:22.522Z,72.19
2023-03-16T11:53:29.432Z,72.01
2023-03-16T11:56:19.204Z,71.71
2023-03-16T11:59:27.821Z,72.08
2023-03-16T12:02:35.106Z,73.03
2023-03-16T12:05:56.662Z,74.43
2023-03-16T12:08:59.409Z,75.68
2023-03-16T12:11:34.741Z,77.29
2023-03-16T12:14:39.164Z,77.93
2023-03-16T12:17:16.894Z,78.14
2023-03-16T12:20:28.141Z,78.60
2023-03-16T12:23:11.733Z,78.67
2023-03-16T12:25:42.997Z,78.55
2023-03-16T12:28:26.115Z,77.19
2023-03-16T12:31:09.647Z,76.93
2023-03-16T12:34:21.203Z,75.55
2023-03-16T12:37:25.842Z,74.23
2023-03-16T12:40:09.283Z,73.81
2023-03-16T12:42:43.225Z,72.72
2023-03-16T12:45:15.239Z,72.21
2023-03-16T12:48:29.242Z,71.59
2023-03-16T12:51:05.235Z,71.51
2023-03-16T12:53:53.401Z,71.19
2023-03-16T12:56:32.240Z,71.01
2023-03-16T12:59:07.773Z,70.28
2023-03-16T13:01:44.765Z,69.54
2023-03-16T13:04:23.720Z,69.11
2023-03-16T13:07:08.162Z,68.60
2023-03-16T13:09:46.407Z,68.59
2023-03-16T13:12:33.006Z,68.80
2023-03-16T13:15:02.315Z,68.64
2023-03-16T13:17:33.924Z,68.88
2023-03-16T13:20:30.743Z,68.77
2023-03-16T13:23:18.905Z,68.47
2023-03-16T13:26:14.828Z,68.24
2023-03-16T13:28:51.646Z,68.15
2023-03-16T13:31:41.421Z,68.23
2023-03-16T13:34:19.938Z,67.84
2023-03-16T13:36:53.585Z,67.59
2023-03-16T13:39:28.037Z,67.56
2023-03-16T13:42:19.338Z,67.73
2023-03-16T13:44:48.504Z,67.50
2023-03-16T13:47:20.272Z,67.64
2023-03-16T13:49:55.440Z,67.60
2023-03-16T13:52:31.601Z,67.24
2023-03-16T13:55:16.376Z,67.28
2023-03-16T13:57:46.647Z,67.73
2023-03-16T14:00:21.828Z,68.03
2023-03-16T14:02:57.336Z,68.24
2023-03-16T14:05:33.666Z,68.30
2023-03-16T14:08:05.169Z,68.36
2023-03-16T14:10:36.966Z,68.38
2023-03-16T14:13:22.518Z,68.39
2023-03-16T14:15:54.785Z,68.32
2023-03-16T14:18:32.311Z,68.14
2023-03-16T14:21:08.189Z,67.83
2023-03-16T14:23:45.044Z,67.42
2023-03-16T14:26:16.891Z,67.70
2023-03-16T14:29:28.514Z,67.59
2023-03-16T14:32:00.063Z,67.39
2023-03-16T14:34:39.696Z,67.09
2023-03-16T14:37:15.987Z,67.02
2023-03-16T14:39:45.827Z,66.58
2023-03-16T14:42:31.480Z,66.51
2023-03-16T14:45:05.034Z,66.67
2023-03-16T14:47:42.083Z,66.72
2023-03-16T14:50:26.757Z,66.76
2023-03-16T14:52:57.067Z,66.78
2023-03-16T14:55:26.090Z,67.32
2023-03-16T14:57:55.876Z,67.26
2023-03-16T15:00:27.566Z,67.09
2023-03-16T15:03:06.766Z,66.88
2023-03-16T15:05:45.999Z,66.63
2023-03-16T15:08:44.706Z,66.41
2023-03-16T15:11:17.016Z,66.54
2023-03-16T15:13:47.037Z,66.63
2023-03-16T15:16:15.983Z,68.27
2023-03-16T15:18:44.854Z,69.80
2023-03-16T15:21:25.298Z,70.26
2023-03-16T15:23:54.181Z,70.61
2023-03-16T15:26:28.693Z,70.23
2023-03-16T15:28:58.219Z,70.57
2023-03-16T15:31:28.570Z,70.25
2023-03-16T15:33:57.398Z,70.23
2023-03-16T15:36:26.348Z,70.10
2023-03-16T15:38:55.804Z,69.49
2023-03-16T15:41:30.121Z,69.56
2023-03-16T15:44:01.600Z,68.94
2023-03-16T15:46:31.027Z,68.18
2023-03-16T15:48:59.854Z,68.00
2023-03-16T15:51:30.872Z,67.84
2023-03-16T15:54:04.059Z,68.03
2023-03-16T15:56:47.490Z,67.81
2023-03-16T15:59:23.791Z,67.85
2023-03-16T16:01:53.062Z,67.71
2023-03-16T16:04:24.470Z,67.55
2023-03-16T16:06:57.945Z,67.80
2023-03-16T16:09:26.714Z,68.14
2023-03-16T16:11:55.454Z,69.01
2023-03-16T16:14:26.854Z,69.14
2023-03-16T16:16:55.829Z,69.86
2023-03-16T16:19:25.584Z,69.78
2023-03-16T16:21:54.368Z,69.71
2023-03-16T16:24:23.677Z,69.53
2023-03-16T16:26:55.343Z,69.51
2023-03-16T16:29:35.247Z,69.70
2023-03-16T16:32:04.534Z,69.38
2023-03-16T16:34:33.460Z,68.79
2023-03-16T16:37:02.322Z,68.34
2023-03-16T16:39:31.272Z,68.45
2023-03-16T16:42:00.228Z,68.42
2023-03-16T16:44:34.424Z,68.23
2023-03-16T16:47:18.101Z,68.61
2023-03-16T16:49:46.919Z,68.79
2023-03-16T16:52:29.421Z,68.46
2023-03-16T16:54:58.350Z,68.42
2023-03-16T16:57:27.328Z,68.16
2023-03-16T16:59:57.299Z,67.99
2023-03-16T17:02:40.441Z,67.79
2023-03-16T17:05:18.839Z,67.76
2023-03-16T17:07:49.745Z,67.81
2023-03-16T17:10:25.578Z,67.62
2023-03-16T17:12:57.225Z,67.15
2023-03-16T17:15:32.442Z,67.42
2023-03-16T17:18:13.448Z,66.69
2023-03-16T17:20:42.267Z,66.76
2023-03-16T17:23:25.157Z,66.70
2023-03-16T17:25:56.152Z,66.65
2023-03-16T17:28:28.478Z,66.63
2023-03-16T17:30:57.784Z,66.86
2023-03-16T17:33:29.091Z,67.12
2023-03-16T17:35:57.959Z,67.15
2023-03-16T17:38:26.736Z,67.30
2023-03-16T17:40:56.064Z,67.49
2023-03-16T17:43:24.863Z,67.73
2023-03-16T17:45:53.740Z,67.62
2023-03-16T17:48:24.772Z,67.56
2023-03-16T17:50:53.541Z,67.35
2023-03-16T17:53:22.509Z,67.32
2023-03-16T17:55:51.470Z,67.51
2023-03-16T17:58:30.584Z,67.35
2023-03-16T18:00:59.332Z,67.25
2023-03-16T18:03:30.510Z,66.62
2023-03-16T18:05:59.544Z,66.50
2023-03-16T18:08:36.159Z,66.16
2023-03-16T18:11:12.859Z,66.45
2023-03-16T18:13:42.648Z,66.39
2023-03-16T18:16:23.431Z,66.41
2023-03-16T18:19:00.771Z,66.48
2023-03-16T18:21:30.235Z,67.00
2023-03-16T18:23:59.591Z,67.63
2023-03-16T18:26:28.739Z,68.53
2023-03-16T18:28:58.201Z,69.00
2023-03-16T18:31:28.368Z,69.42
2023-03-16T18:34:01.162Z,69.60
2023-03-16T18:36:33.608Z,69.67
2023-03-16T18:39:05.917Z,70.04
2023-03-16T18:41:36.151Z,69.96
2023-03-16T18:44:19.072Z,70.26
2023-03-16T18:46:49.894Z,70.12
2023-03-16T18:49:26.586Z,70.06
2023-03-16T18:51:55.643Z,69.77
2023-03-16T18:54:37.070Z,69.90
2023-03-16T18:57:17.817Z,69.64
2023-03-16T18:59:47.329Z,69.72
2023-03-16T19:02:29.869Z,69.65
2023-03-16T19:05:01.028Z,69.48
2023-03-16T19:07:38.556Z,69.67
2023-03-16T19:10:26.733Z,69.48
2023-03-16T19:12:55.992Z,69.71
2023-03-16T19:15:28.975Z,69.58
2023-03-16T19:17:58.393Z,69.41
2023-03-16T19:20:30.572Z,69.12
2023-03-16T19:23:13.937Z,69.01
2023-03-16T19:25:42.810Z,69.10
2023-03-16T19:28:34.402Z,69.14
2023-03-16T19:31:14.522Z,68.87
2023-03-16T19:33:43.474Z,68.73
2023-03-16T19:36:33.743Z,68.66
2023-03-16T19:39:04.207Z,68.23
2023-03-16T19:41:37.361Z,68.89
2023-03-16T19:44:20.700Z,68.61
2023-03-16T19:46:50.377Z,68.83
2023-03-16T19:49:22.946Z,68.62
2023-03-16T19:51:54.518Z,68.86
2023-03-16T19:54:34.027Z,68.10
2023-03-16T19:57:12.621Z,68.06
2023-03-16T19:59:42.740Z,68.07
2023-03-16T20:02:26.694Z,68.21
2023-03-16T20:04:56.325Z,68.30
2023-03-16T20:07:25.827Z,68.61
2023-03-16T20:09:54.555Z,68.41
2023-03-16T20:12:30.509Z,68.68
2023-03-16T20:15:02.336Z,68.34
2023-03-16T20:17:33.061Z,68.20
2023-03-16T20:20:02.163Z,68.39
2023-03-16T20:22:30.891Z,68.59
2023-03-16T20:25:02.146Z,68.49
2023-03-16T20:27:31.680Z,68.80
2023-03-16T20:30:00.758Z,69.17
2023-03-16T20:32:36.352Z,69.37
2023-03-16T20:35:19.053Z,69.79
2023-03-16T20:37:47.937Z,69.99
2023-03-16T20:40:17.104Z,70.17
2023-03-16T20:42:47.532Z,70.29
2023-03-16T20:45:28.710Z,70.84
2023-03-16T20:47:57.827Z,70.88
2023-03-16T20:50:30.879Z,70.93
2023-03-16T20:52:59.551Z,71.36
2023-03-16T20:55:29.502Z,71.20
2023-03-16T20:57:58.830Z,71.33
2023-03-16T21:00:37.111Z,71.63
2023-03-16T21:03:23.782Z,71.81
2023-03-16T21:05:55.660Z,72.12
2023-03-16T21:08:25.245Z,72.26
2023-03-16T21:10:56.418Z,72.79
2023-03-16T21:13:33.729Z,72.76
2023-03-16T21:16:03.612Z,72.45
2023-03-16T21:18:33.184Z,72.68
2023-03-16T21:21:03.216Z,72.40
2023-03-16T21:23:31.982Z,73.22
2023-03-16T21:26:03.944Z,73.33
2023-03-16T21:28:35.088Z,73.28
2023-03-16T21:31:06.018Z,73.39
2023-03-16T21:33:39.202Z,73.20
2023-03-16T21:36:22.509Z,73.40
2023-03-16T21:38:51.735Z,73.49
2023-03-16T21:41:20.724Z,73.55
2023-03-16T21:43:50.303Z,73.49
2023-03-16T21:46:22.507Z,73.91
2023-03-16T21:48:55.966Z,73.71
2023-03-16T21:51:34.621Z,73.71
2023-03-16T21:54:03.594Z,73.74
2023-03-16T21:56:32.801Z,73.74
2023-03-16T21:59:01.677Z,73.79
2023-03-16T22:01:33.082Z,73.59
2023-03-16T22:04:16.760Z,73.77
2023-03-16T22:06:46.205Z,73.83
2023-03-16T22:09:22.614Z,73.99
2023-03-16T22:11:51.564Z,74.31
2023-03-16T22:14:20.548Z,74.38
2023-03-16T22:16:49.741Z,74.61
2023-03-16T22:19:18.495Z,74.67
2023-03-16T22:21:47.984Z,74.84
2023-03-16T22:24:21.211Z,74.77
2023-03-16T22:26:50.913Z,74.71
2023-03-16T22:29:33.854Z,75.04
2023-03-16T22:32:17.240Z,75.19
2023-03-16T22:34:45.730Z,75.31
2023-03-16T22:37:21.234Z,75.70
2023-03-16T22:39:50.542Z,75.34
2023-03-16T22:42:38.235Z,75.40
2023-03-16T22:45:28.632Z,75.70
2023-03-16T22:47:59.933Z,75.73
2023-03-16T22:50:34.926Z,75.88
2023-03-16T22:53:08.410Z,75.66
2023-03-16T22:55:40.243Z,75.85
2023-03-16T22:58:41.137Z,75.88
2023-03-16T23:01:23.363Z,76.13
2023-03-16T23:03:53.873Z,76.39
2023-03-16T23:06:32.361Z,76.80
2023-03-16T23:09:01.155Z,76.62
2023-03-16T23:11:36.051Z,76.78
2023-03-16T23:14:14.454Z,76.90
2023-03-16T23:16:44.062Z,76.42
2023-03-16T23:19:30.125Z,76.53
2023-03-16T23:22:05.774Z,76.62
2023-03-16T23:24:36.240Z,76.58
2023-03-16T23:27:08.135Z,76.89
2023-03-16T23:29:37.128Z,77.85
2023-03-16T23:32:06.623Z,77.32
2023-03-16T23:34:35.300Z,77.23
2023-03-16T23:37:04.058Z,76.99
2023-03-16T23:39:32.801Z,77.03
2023-03-16T23:42:01.919Z,76.74
2023-03-16T23:44:31.454Z,76.47
2023-03-16T23:47:00.793Z,76.44
2023-03-16T23:49:33.141Z,76.80
2023-03-16T23:52:02.341Z,76.71
2023-03-16T23:54:32.833Z,76.55
2023-03-16T23:57:01.608Z,76.75
2023-03-16T23:59:30.402Z,76.76
